createdAt,value
2019-03-04T00:01:13.010Z,11.15
2019-03-04T00:04:21.506Z,11.14
2019-03-04T00:07:40.419Z,11.21
2019-03-04T00:10:49.286Z,11.21
2019-03-04T00:13:57.798Z,11.27
2019-03-04T00:17:06.672Z,11.24
2019-03-04T00:20:15.184Z,11.28
2019-03-04T00:23:24.116Z,11.29
2019-03-04T00:26:32.716Z,11.34
2019-03-04T00:29:41.470Z,11.26
2019-03-04T00:32:49.972Z,11.27
2019-03-04T00:35:59.142Z,11.26
2019-03-04T00:39:11.791Z,11.26
2019-03-04T00:42:20.277Z,11.26
2019-03-04T00:45:29.514Z,11.24
2019-03-04T00:48:38.115Z,11.22
2019-03-04T00:51:46.680Z,11.21
2019-03-04T00:54:55.188Z,11.14
2019-03-04T00:58:03.886Z,11.21
2019-03-04T01:01:12.490Z,11.25
2019-03-04T01:04:21.130Z,11.28
2019-03-04T01:07:29.744Z,11.30
2019-03-04T01:10:48.678Z,11.30
2019-03-04T01:13:57.163Z,11.33
2019-03-04T01:17:05.671Z,11.32
2019-03-04T01:20:16.133Z,11.37
2019-03-04T01:23:24.602Z,11.36
2019-03-04T01:26:38.170Z,11.50
2019-03-04T01:29:46.732Z,11.58
2019-03-04T01:33:05.559Z,11.68
2019-03-04T01:36:14.081Z,11.67
2019-03-04T01:39:22.696Z,11.69
2019-03-04T01:42:31.280Z,11.62
2019-03-04T01:45:39.651Z,11.57
2019-03-04T01:48:58.591Z,11.64
2019-03-04T01:52:07.292Z,11.57
2019-03-04T01:55:16.381Z,11.65
2019-03-04T01:58:24.860Z,11.67
2019-03-04T02:01:33.510Z,11.67
2019-03-04T02:04:42.218Z,11.75
2019-03-04T02:07:51.201Z,11.77
2019-03-04T02:10:59.719Z,11.80
2019-03-04T02:14:08.201Z,11.86
2019-03-04T02:17:16.768Z,11.71
2019-03-04T02:20:35.515Z,11.71
2019-03-04T02:23:44.536Z,11.59
2019-03-04T02:26:54.122Z,11.48
2019-03-04T02:30:02.636Z,11.56
2019-03-04T02:33:11.323Z,11.62
2019-03-04T02:36:20.254Z,11.55
2019-03-04T02:39:28.868Z,11.53
2019-03-04T02:42:47.705Z,11.58
2019-03-04T02:45:56.540Z,11.58
2019-03-04T02:49:05.195Z,11.62
2019-03-04T02:52:13.750Z,11.76
2019-03-04T02:55:22.231Z,11.74
2019-03-04T02:58:30.772Z,11.70
2019-03-04T03:01:52.423Z,11.82
2019-03-04T03:05:13.295Z,11.89
2019-03-04T03:08:32.415Z,11.90
2019-03-04T03:11:41.048Z,11.92
2019-03-04T03:14:49.710Z,11.96
2019-03-04T03:17:58.808Z,11.95
2019-03-04T03:21:07.446Z,11.99
2019-03-04T03:24:16.115Z,11.97
2019-03-04T03:27:24.719Z,12.14
2019-03-04T03:30:33.274Z,12.23
2019-03-04T03:33:41.856Z,12.15
2019-03-04T03:36:50.357Z,12.12
2019-03-04T03:40:11.940Z,12.24
2019-03-04T03:43:20.479Z,12.25
2019-03-04T03:46:28.987Z,12.20
2019-03-04T03:49:48.098Z,12.32
2019-03-04T03:52:56.644Z,12.28
2019-03-04T03:56:05.202Z,12.34
2019-03-04T03:59:13.877Z,12.34
2019-03-04T04:02:22.385Z,12.28
2019-03-04T04:05:31.014Z,12.30
2019-03-04T04:08:39.520Z,12.32
2019-03-04T04:11:58.426Z,12.37
2019-03-04T04:15:07.062Z,12.40
2019-03-04T04:18:15.673Z,12.37
2019-03-04T04:21:24.290Z,12.55
2019-03-04T04:24:32.823Z,12.54
2019-03-04T04:27:41.428Z,12.49
2019-03-04T04:31:00.307Z,12.54
2019-03-04T04:34:09.016Z,12.53
2019-03-04T04:37:17.766Z,12.51
2019-03-04T04:40:26.276Z,12.45
2019-03-04T04:43:34.793Z,12.50
2019-03-04T04:46:55.730Z,12.45
2019-03-04T04:50:04.310Z,12.51
2019-03-04T04:53:12.775Z,12.48
2019-03-04T04:56:21.481Z,12.40
2019-03-04T04:59:30.083Z,12.49
2019-03-04T05:02:38.226Z,12.58
2019-03-04T05:05:57.228Z,12.57
2019-03-04T05:09:09.575Z,12.63
2019-03-04T05:12:18.739Z,12.59
2019-03-04T05:15:27.628Z,12.60
2019-03-04T05:18:36.256Z,12.67
2019-03-04T05:21:54.927Z,12.72
2019-03-04T05:25:03.411Z,12.69
2019-03-04T05:28:11.929Z,12.65
2019-03-04T05:31:20.406Z,12.56
2019-03-04T05:34:39.189Z,12.65
2019-03-04T05:37:47.789Z,12.62
2019-03-04T05:40:56.275Z,12.50
2019-03-04T05:44:04.801Z,12.54
2019-03-04T05:47:13.319Z,12.48
2019-03-04T05:50:32.029Z,12.55
2019-03-04T05:53:40.641Z,12.51
2019-03-04T05:56:49.125Z,12.50
2019-03-04T05:59:57.648Z,12.59
2019-03-04T06:03:06.329Z,12.60
2019-03-04T06:06:15.085Z,12.64
2019-03-04T06:09:23.777Z,12.61
2019-03-04T06:12:42.629Z,12.67
2019-03-04T06:15:51.273Z,12.62
2019-03-04T06:19:00.022Z,12.72
2019-03-04T06:22:08.628Z,12.65
2019-03-04T06:25:23.227Z,12.68
2019-03-04T06:28:42.042Z,12.80
2019-03-04T06:31:50.705Z,12.75
2019-03-04T06:34:59.455Z,12.77
2019-03-04T06:38:08.159Z,12.64
2019-03-04T06:41:16.754Z,12.75
2019-03-04T06:44:25.337Z,12.78
2019-03-04T06:47:33.949Z,12.80
2019-03-04T06:50:56.001Z,12.80
2019-03-04T06:54:48.550Z,12.76
2019-03-04T06:57:57.156Z,12.63
2019-03-04T07:01:18.310Z,12.52
2019-03-04T07:05:08.643Z,12.47
2019-03-04T07:09:17.712Z,12.47
2019-03-04T07:12:36.534Z,12.44
2019-03-04T07:15:45.039Z,12.21
2019-03-04T07:18:53.616Z,12.17
2019-03-04T07:22:02.234Z,12.15
2019-03-04T07:25:10.792Z,12.19
2019-03-04T07:28:29.826Z,12.24
2019-03-04T07:31:38.324Z,12.01
2019-03-04T07:34:46.829Z,11.98
2019-03-04T07:38:28.003Z,12.08
2019-03-04T07:41:39.747Z,12.05
2019-03-04T07:44:48.409Z,12.02
2019-03-04T07:47:57.105Z,12.14
2019-03-04T07:51:23.724Z,12.22
2019-03-04T07:54:32.365Z,12.13
2019-03-04T07:57:40.998Z,12.24
2019-03-04T08:00:49.540Z,12.31
2019-03-04T08:03:58.140Z,12.36
2019-03-04T08:07:48.126Z,12.43
2019-03-04T08:11:54.103Z,12.31
2019-03-04T08:15:13.225Z,12.60
2019-03-04T08:18:21.820Z,12.54
2019-03-04T08:21:30.434Z,12.61
2019-03-04T08:24:39.063Z,12.64
2019-03-04T08:27:47.822Z,12.65
2019-03-04T08:30:56.459Z,12.75
2019-03-04T08:34:05.102Z,12.76
2019-03-04T08:37:14.016Z,12.76
2019-03-04T08:40:22.795Z,12.68
2019-03-04T08:43:31.434Z,12.79
2019-03-04T08:46:40.102Z,12.76
2019-03-04T08:49:48.714Z,12.84
2019-03-04T08:53:07.761Z,12.91
2019-03-04T08:56:16.444Z,12.51
2019-03-04T08:59:24.985Z,12.01
2019-03-04T09:02:33.657Z,11.72
2019-03-04T09:05:42.335Z,11.42
2019-03-04T09:08:51.004Z,10.80
2019-03-04T09:11:59.541Z,9.94
2019-03-04T09:15:09.065Z,9.56
2019-03-04T09:18:17.658Z,9.40
2019-03-04T09:21:27.346Z,9.09
2019-03-04T09:24:46.343Z,8.87
2019-03-04T09:27:54.986Z,8.63
2019-03-04T09:31:03.589Z,8.76
2019-03-04T09:34:12.133Z,8.81
2019-03-04T09:37:20.816Z,8.86
2019-03-04T09:40:31.208Z,8.62
2019-03-04T09:43:40.960Z,8.58
2019-03-04T09:47:00.089Z,8.71
2019-03-04T09:50:12.085Z,8.71
2019-03-04T09:53:20.592Z,8.79
2019-03-04T09:56:29.207Z,8.76
2019-03-04T09:59:37.930Z,8.87
2019-03-04T10:02:49.277Z,8.87
2019-03-04T10:06:33.850Z,9.19
2019-03-04T10:10:18.114Z,10.19
2019-03-04T10:14:10.487Z,10.79
2019-03-04T10:18:02.313Z,11.44
2019-03-04T10:21:56.665Z,11.54
2019-03-04T10:26:03.766Z,11.42
2019-03-04T10:30:10.461Z,11.43
2019-03-04T10:34:08.111Z,11.19
2019-03-04T10:37:57.289Z,11.03
2019-03-04T10:42:06.597Z,10.80
2019-03-04T10:45:33.548Z,10.52
2019-03-04T10:48:42.217Z,10.44
2019-03-04T10:51:50.782Z,10.47
2019-03-04T10:54:59.438Z,10.44
2019-03-04T10:58:09.092Z,10.44
2019-03-04T11:01:30.716Z,10.43
2019-03-04T11:04:39.743Z,10.33
2019-03-04T11:07:47.001Z,10.25
2019-03-04T11:10:55.691Z,10.27
2019-03-04T11:14:04.519Z,10.07
2019-03-04T11:17:13.257Z,10.17
2019-03-04T11:20:22.943Z,10.29
2019-03-04T11:23:31.569Z,10.43
2019-03-04T11:26:42.430Z,10.65
2019-03-04T11:29:51.093Z,11.07
2019-03-04T11:32:59.699Z,11.44
2019-03-04T11:36:06.909Z,11.62
2019-03-04T11:40:05.450Z,11.81
2019-03-04T11:43:14.047Z,11.74
2019-03-04T11:46:24.753Z,11.49
2019-03-04T11:49:33.398Z,11.24
2019-03-04T11:52:42.939Z,10.94
2019-03-04T11:56:01.978Z,10.68
2019-03-04T11:59:10.645Z,10.26
2019-03-04T12:02:23.645Z,9.43
2019-03-04T12:05:32.297Z,8.99
2019-03-04T12:08:41.055Z,8.52
2019-03-04T12:11:50.095Z,8.50
2019-03-04T12:14:58.645Z,8.51
2019-03-04T12:18:07.396Z,8.58
2019-03-04T12:21:16.091Z,8.59
2019-03-04T12:24:24.730Z,8.65
2019-03-04T12:27:43.903Z,8.85
2019-03-04T12:30:52.442Z,8.92
2019-03-04T12:34:02.165Z,8.85
2019-03-04T12:37:11.011Z,8.84
2019-03-04T12:40:20.790Z,8.78
2019-03-04T12:43:29.280Z,8.65
2019-03-04T12:46:37.776Z,8.65
2019-03-04T12:49:46.478Z,8.66
2019-03-04T12:52:54.966Z,8.82
2019-03-04T12:56:03.860Z,9.20
2019-03-04T12:59:12.462Z,9.49
2019-03-04T13:02:21.017Z,10.07
2019-03-04T13:05:29.692Z,10.98
2019-03-04T13:08:49.662Z,11.72
2019-03-04T13:11:58.271Z,12.47
2019-03-04T13:15:06.987Z,13.23
2019-03-04T13:18:15.795Z,13.96
2019-03-04T13:21:24.790Z,13.61
2019-03-04T13:24:33.290Z,12.47
2019-03-04T13:27:41.954Z,11.85
2019-03-04T13:31:00.753Z,12.36
2019-03-04T13:34:09.398Z,13.07
2019-03-04T13:37:19.538Z,13.04
2019-03-04T13:40:28.265Z,12.23
2019-03-04T13:43:36.881Z,11.74
2019-03-04T13:46:45.505Z,11.32
2019-03-04T13:49:54.157Z,10.91
2019-03-04T13:53:13.108Z,10.68
2019-03-04T13:56:21.861Z,10.30
2019-03-04T13:59:30.382Z,10.34
2019-03-04T14:02:38.899Z,10.33
2019-03-04T14:05:47.382Z,10.34
2019-03-04T14:08:55.908Z,10.66
2019-03-04T14:12:17.958Z,10.95
2019-03-04T14:15:39.249Z,10.71
2019-03-04T14:18:47.885Z,10.72
2019-03-04T14:21:56.506Z,10.48
2019-03-04T14:25:15.461Z,10.35
2019-03-04T14:28:24.058Z,10.16
2019-03-04T14:31:32.663Z,9.99
2019-03-04T14:34:41.334Z,9.63
2019-03-04T14:37:50.009Z,9.17
2019-03-04T14:40:58.644Z,9.05
2019-03-04T14:44:07.259Z,8.82
2019-03-04T14:47:15.786Z,8.66
2019-03-04T14:50:34.768Z,8.58
2019-03-04T14:53:43.344Z,8.56
2019-03-04T14:56:51.919Z,8.57
2019-03-04T15:00:00.506Z,8.63
2019-03-04T15:03:18.997Z,8.67
2019-03-04T15:06:19.552Z,8.70
2019-03-04T15:09:28.296Z,8.64
2019-03-04T15:12:36.873Z,8.65
2019-03-04T15:16:01.678Z,8.84
2019-03-04T15:19:06.097Z,8.67
2019-03-04T15:22:14.842Z,8.71
2019-03-04T15:25:27.512Z,8.75
2019-03-04T15:28:46.308Z,8.80
2019-03-04T15:31:54.889Z,8.68
2019-03-04T15:35:03.492Z,8.53
2019-03-04T15:38:12.124Z,8.45
2019-03-04T15:41:23.768Z,8.30
2019-03-04T15:44:32.365Z,8.35
2019-03-04T15:47:51.311Z,8.31
2019-03-04T15:50:59.911Z,8.30
2019-03-04T15:54:08.506Z,8.21
2019-03-04T15:57:17.209Z,8.12
2019-03-04T16:00:25.916Z,8.09
2019-03-04T16:03:36.636Z,7.93
2019-03-04T16:06:44.858Z,7.78
2019-03-04T16:09:53.888Z,7.60
2019-03-04T16:13:02.881Z,7.49
2019-03-04T16:16:11.475Z,7.42
2019-03-04T16:19:20.151Z,7.37
2019-03-04T16:22:27.350Z,7.37
2019-03-04T16:25:37.164Z,7.29
2019-03-04T16:28:47.271Z,7.23
2019-03-04T16:31:55.871Z,7.20
2019-03-04T16:35:04.783Z,7.14
2019-03-04T16:38:13.276Z,7.11
2019-03-04T16:41:21.920Z,7.16
2019-03-04T16:44:30.512Z,7.08
2019-03-04T16:47:40.324Z,7.06
2019-03-04T16:50:59.455Z,7.11
2019-03-04T16:54:08.081Z,6.97
2019-03-04T16:57:35.936Z,6.88
2019-03-04T17:00:48.088Z,6.90
2019-03-04T17:03:56.366Z,6.95
2019-03-04T17:07:05.176Z,6.97
2019-03-04T17:10:15.799Z,7.03
2019-03-04T17:13:24.289Z,6.98
2019-03-04T17:16:32.998Z,7.03
2019-03-04T17:19:41.769Z,6.92
2019-03-04T17:22:50.650Z,6.95
2019-03-04T17:25:59.284Z,6.93
2019-03-04T17:29:07.887Z,6.96
2019-03-04T17:32:26.772Z,6.97
2019-03-04T17:35:35.427Z,6.90
2019-03-04T17:38:44.151Z,6.93
2019-03-04T17:41:52.816Z,7.03
2019-03-04T17:45:01.464Z,7.00
2019-03-04T17:48:10.400Z,7.01
2019-03-04T17:51:20.281Z,7.01
2019-03-04T17:54:28.912Z,6.99
2019-03-04T17:57:47.717Z,7.03
2019-03-04T18:00:56.710Z,6.95
2019-03-04T18:04:05.347Z,6.96
2019-03-04T18:07:14.035Z,7.00
2019-03-04T18:10:22.739Z,6.95
2019-03-04T18:13:31.718Z,7.03
2019-03-04T18:16:40.258Z,7.06
2019-03-04T18:19:48.935Z,7.09
2019-03-04T18:22:57.464Z,7.09
2019-03-04T18:26:18.461Z,7.12
2019-03-04T18:30:48.920Z,7.18
2019-03-04T18:35:06.585Z,7.12
2019-03-04T18:38:58.572Z,7.06
2019-03-04T18:43:11.292Z,7.01
2019-03-04T18:47:02.245Z,6.99
2019-03-04T18:50:10.811Z,6.98
2019-03-04T18:53:19.468Z,6.94
2019-03-04T18:56:29.925Z,6.95
2019-03-04T18:59:38.559Z,6.89
2019-03-04T19:02:48.669Z,6.91
2019-03-04T19:06:07.840Z,6.92
2019-03-04T19:09:26.807Z,6.96
2019-03-04T19:12:35.451Z,6.87
2019-03-04T19:15:43.931Z,6.91
2019-03-04T19:18:52.620Z,6.90
2019-03-04T19:22:01.203Z,6.99
2019-03-04T19:25:10.519Z,6.93
2019-03-04T19:28:19.042Z,7.03
2019-03-04T19:31:29.266Z,7.05
2019-03-04T19:34:37.873Z,7.10
2019-03-04T19:37:46.448Z,7.08
2019-03-04T19:41:05.595Z,7.26
2019-03-04T19:44:14.127Z,7.34
2019-03-04T19:47:23.809Z,7.31
2019-03-04T19:50:33.125Z,7.33
2019-03-04T19:53:41.809Z,7.37
2019-03-04T19:56:50.573Z,7.51
2019-03-04T19:59:59.225Z,7.60
2019-03-04T20:03:08.005Z,7.66
2019-03-04T20:06:16.511Z,7.61
2019-03-04T20:09:25.728Z,7.61
2019-03-04T20:12:34.318Z,7.64
2019-03-04T20:15:42.988Z,7.65
2019-03-04T20:18:51.638Z,7.68
2019-03-04T20:22:10.371Z,7.75
2019-03-04T20:25:19.114Z,7.66
2019-03-04T20:28:27.820Z,7.70
2019-03-04T20:31:36.336Z,7.72
2019-03-04T20:34:44.967Z,7.70
2019-03-04T20:37:57.577Z,7.70
2019-03-04T20:41:06.191Z,7.75
2019-03-04T20:44:17.447Z,7.82
2019-03-04T20:47:26.180Z,7.78
2019-03-04T20:50:46.519Z,7.84
2019-03-04T20:53:55.205Z,7.88
2019-03-04T20:57:05.191Z,7.92
2019-03-04T21:00:19.332Z,7.95
2019-03-04T21:03:34.995Z,7.97
2019-03-04T21:06:38.257Z,7.95
2019-03-04T21:09:46.832Z,8.06
2019-03-04T21:12:57.021Z,8.05
2019-03-04T21:16:06.258Z,8.00
2019-03-04T21:19:15.193Z,8.03
2019-03-04T21:22:23.702Z,7.94
2019-03-04T21:26:00.532Z,7.88
2019-03-04T21:30:19.667Z,7.95
2019-03-04T21:33:58.301Z,7.82
2019-03-04T21:37:30.641Z,7.85
2019-03-04T21:42:01.262Z,7.75
2019-03-04T21:45:55.098Z,7.78
2019-03-04T21:49:08.444Z,7.71
2019-03-04T21:52:53.318Z,7.74
2019-03-04T21:57:02.651Z,7.62
2019-03-04T22:00:34.896Z,7.80
2019-03-04T22:03:53.778Z,7.74
2019-03-04T22:07:03.898Z,7.65
2019-03-04T22:10:14.804Z,7.55
2019-03-04T22:13:24.706Z,7.60
2019-03-04T22:16:33.500Z,7.70
2019-03-04T22:19:42.161Z,7.66
2019-03-04T22:22:50.747Z,7.70
2019-03-04T22:26:02.261Z,7.71
2019-03-04T22:29:09.809Z,7.74
2019-03-04T22:32:18.434Z,7.77
2019-03-04T22:35:27.108Z,7.76
2019-03-04T22:38:34.427Z,7.75
2019-03-04T22:41:53.224Z,7.77
2019-03-04T22:45:01.891Z,7.76
2019-03-04T22:48:10.682Z,7.66
2019-03-04T22:51:19.678Z,7.63
2019-03-04T22:54:28.211Z,7.62
2019-03-04T22:57:36.982Z,7.62
2019-03-04T23:01:33.117Z,7.59
2019-03-04T23:05:19.171Z,7.54
2019-03-04T23:08:27.837Z,7.56
2019-03-04T23:11:38.125Z,7.57
2019-03-04T23:14:48.137Z,7.61
2019-03-04T23:18:07.245Z,7.59
2019-03-04T23:21:26.371Z,7.59
2019-03-04T23:24:34.878Z,7.47
2019-03-04T23:27:43.439Z,7.43
2019-03-04T23:30:52.090Z,7.42
2019-03-04T23:34:00.668Z,7.34
2019-03-04T23:37:09.370Z,7.39
2019-03-04T23:40:18.078Z,7.33
2019-03-04T23:43:26.313Z,7.33
2019-03-04T23:46:35.109Z,7.39
2019-03-04T23:49:43.693Z,7.42
2019-03-04T23:52:52.324Z,7.41
2019-03-04T23:56:00.939Z,7.41
2019-03-04T23:59:09.591Z,7.51
